createdAt,value
2018-09-15T00:00:15.925Z,16.49
2018-09-15T00:01:15.902Z,16.45
2018-09-15T00:02:15.886Z,16.41
2018-09-15T00:03:15.866Z,16.39
2018-09-15T00:04:15.849Z,16.39
2018-09-15T00:05:15.837Z,16.39
2018-09-15T00:06:18.438Z,16.41
2018-09-15T00:07:15.800Z,16.50
2018-09-15T00:08:15.783Z,16.41
2018-09-15T00:09:15.768Z,16.35
2018-09-15T00:10:15.751Z,16.43
2018-09-15T00:11:15.734Z,16.41
2018-09-15T00:12:15.718Z,16.39
2018-09-15T00:13:15.700Z,16.49
2018-09-15T00:14:15.686Z,16.35
2018-09-15T00:15:15.670Z,16.45
2018-09-15T00:16:15.649Z,16.31
2018-09-15T00:17:15.637Z,16.39
2018-09-15T00:18:15.615Z,16.41
2018-09-15T00:19:15.606Z,16.39
2018-09-15T00:20:15.582Z,16.35
2018-09-15T00:21:15.565Z,16.41
2018-09-15T00:22:15.550Z,16.43
2018-09-15T00:23:15.530Z,16.41
2018-09-15T00:24:15.518Z,16.41
2018-09-15T00:25:15.498Z,16.31
2018-09-15T00:26:15.481Z,16.34
2018-09-15T00:27:15.464Z,16.34
2018-09-15T00:28:15.447Z,16.34
2018-09-15T00:29:15.433Z,16.21
2018-09-15T00:30:15.412Z,16.23
2018-09-15T00:31:15.396Z,16.28
2018-09-15T00:32:15.380Z,16.30
2018-09-15T00:33:15.370Z,16.27
2018-09-15T00:34:15.346Z,16.30
2018-09-15T00:35:15.330Z,16.25
2018-09-15T00:36:15.315Z,16.21
2018-09-15T00:37:15.295Z,16.24
2018-09-15T00:38:15.279Z,16.30
2018-09-15T00:39:15.271Z,16.24
2018-09-15T00:40:15.249Z,16.17
2018-09-15T00:41:15.230Z,16.23
2018-09-15T00:42:15.210Z,16.17
2018-09-15T00:43:15.192Z,16.17
2018-09-15T00:44:15.177Z,16.12
2018-09-15T00:45:15.159Z,16.11
2018-09-15T00:46:15.143Z,16.14
2018-09-15T00:47:15.124Z,16.07
2018-09-15T00:48:15.109Z,16.07
2018-09-15T00:49:15.094Z,16.04
2018-09-15T00:50:15.073Z,16.07
2018-09-15T00:51:15.056Z,16.07
2018-09-15T00:52:15.046Z,15.97
2018-09-15T00:53:15.024Z,16.00
2018-09-15T00:54:15.009Z,15.97
2018-09-15T00:55:14.989Z,15.94
2018-09-15T00:56:14.972Z,15.97
2018-09-15T00:57:14.954Z,15.94
2018-09-15T00:58:14.936Z,16.00
2018-09-15T00:59:14.921Z,15.96
2018-09-15T01:00:14.904Z,15.93
2018-09-15T01:01:14.894Z,15.89
2018-09-15T01:02:14.870Z,15.80
2018-09-15T01:03:14.853Z,15.97
2018-09-15T01:04:14.837Z,15.92
2018-09-15T01:05:14.818Z,15.87
2018-09-15T01:06:14.802Z,15.80
2018-09-15T01:07:14.783Z,15.76
2018-09-15T01:08:14.769Z,15.72
2018-09-15T01:09:14.749Z,15.72
2018-09-15T01:10:14.733Z,15.74
2018-09-15T01:11:14.716Z,15.78
2018-09-15T01:12:14.701Z,15.76
2018-09-15T01:13:14.684Z,15.72
2018-09-15T01:14:14.780Z,15.65
2018-09-15T01:15:14.648Z,15.68
2018-09-15T01:16:14.631Z,15.59
2018-09-15T01:17:14.615Z,15.56
2018-09-15T01:18:14.597Z,15.51
2018-09-15T01:19:14.580Z,15.43
2018-09-15T01:20:14.564Z,15.54
2018-09-15T01:21:14.546Z,15.51
2018-09-15T01:22:14.529Z,15.46
2018-09-15T01:23:14.511Z,15.35
2018-09-15T01:24:14.498Z,15.29
2018-09-15T01:25:14.479Z,15.25
2018-09-15T01:26:14.461Z,15.19
2018-09-15T01:27:14.444Z,15.19
2018-09-15T01:28:14.424Z,15.07
2018-09-15T01:29:14.407Z,15.13
2018-09-15T01:30:14.388Z,15.03
2018-09-15T01:31:14.373Z,14.89
2018-09-15T01:32:14.358Z,14.92
2018-09-15T01:33:14.339Z,14.88
2018-09-15T01:34:14.321Z,14.84
2018-09-15T01:35:14.307Z,14.81
2018-09-15T01:36:14.288Z,14.80
2018-09-15T01:37:14.270Z,14.86
2018-09-15T01:38:14.252Z,14.77
2018-09-15T01:39:14.234Z,14.77
2018-09-15T01:40:14.218Z,14.80
2018-09-15T01:41:14.202Z,14.80
2018-09-15T01:42:14.182Z,14.78
2018-09-15T01:43:14.168Z,14.75
2018-09-15T01:44:14.148Z,14.72
2018-09-15T01:45:14.134Z,14.65
2018-09-15T01:46:14.720Z,14.69
2018-09-15T01:47:14.095Z,14.70
2018-09-15T01:48:14.078Z,14.58
2018-09-15T01:49:14.063Z,14.60
2018-09-15T01:50:14.041Z,14.61
2018-09-15T01:51:14.025Z,14.54
2018-09-15T01:52:14.009Z,14.54
2018-09-15T01:53:13.994Z,14.62
2018-09-15T01:54:13.973Z,14.62
2018-09-15T01:55:13.955Z,14.60
2018-09-15T01:56:13.941Z,14.65
2018-09-15T01:57:13.922Z,14.55
2018-09-15T01:58:13.905Z,14.60
2018-09-15T01:59:13.884Z,14.50
2018-09-15T02:00:13.867Z,14.61
2018-09-15T02:01:13.849Z,14.51
2018-09-15T02:02:13.833Z,14.55
2018-09-15T02:03:13.813Z,14.46
2018-09-15T02:04:13.796Z,14.46
2018-09-15T02:05:13.781Z,14.40
2018-09-15T02:06:13.758Z,14.42
2018-09-15T02:07:13.744Z,14.40
2018-09-15T02:08:13.726Z,14.36
2018-09-15T02:09:13.709Z,14.45
2018-09-15T02:10:13.691Z,14.43
2018-09-15T02:11:13.672Z,14.43
2018-09-15T02:12:13.656Z,14.37
2018-09-15T02:13:13.637Z,14.40
2018-09-15T02:14:13.626Z,14.37
2018-09-15T02:15:13.602Z,14.45
2018-09-15T02:16:13.585Z,14.33
2018-09-15T02:17:13.567Z,14.24
2018-09-15T02:18:13.549Z,14.20
2018-09-15T02:19:13.530Z,14.17
2018-09-15T02:20:13.515Z,14.15
2018-09-15T02:21:13.495Z,14.12
2018-09-15T02:22:13.475Z,14.07
2018-09-15T02:23:13.462Z,14.07
2018-09-15T02:24:13.441Z,14.02
2018-09-15T02:25:13.422Z,14.00
2018-09-15T02:26:13.403Z,14.02
2018-09-15T02:27:13.386Z,13.88
2018-09-15T02:28:13.370Z,13.84
2018-09-15T02:29:13.351Z,13.84
2018-09-15T02:30:13.334Z,13.88
2018-09-15T02:31:13.520Z,13.82
2018-09-15T02:32:13.297Z,13.79
2018-09-15T02:33:13.280Z,13.81
2018-09-15T02:34:13.264Z,13.73
2018-09-15T02:35:13.246Z,13.79
2018-09-15T02:36:13.226Z,13.81
2018-09-15T02:37:13.209Z,13.77
2018-09-15T02:38:13.190Z,13.69
2018-09-15T02:39:13.172Z,13.70
2018-09-15T02:40:13.153Z,13.71
2018-09-15T02:41:13.136Z,13.70
2018-09-15T02:42:13.116Z,13.70
2018-09-15T02:43:13.099Z,13.59
2018-09-15T02:44:13.087Z,13.67
2018-09-15T02:45:13.062Z,13.64
2018-09-15T02:46:13.045Z,13.71
2018-09-15T02:47:13.034Z,13.67
2018-09-15T02:48:13.007Z,13.55
2018-09-15T02:49:12.992Z,13.57
2018-09-15T02:50:12.972Z,13.44
2018-09-15T02:51:12.954Z,13.38
2018-09-15T02:52:12.934Z,13.30
2018-09-15T02:53:12.929Z,13.36
2018-09-15T02:54:12.907Z,13.29
2018-09-15T02:55:12.881Z,13.25
2018-09-15T02:56:12.862Z,13.14
2018-09-15T02:57:12.844Z,13.12
2018-09-15T02:58:12.829Z,13.11
2018-09-15T02:59:12.808Z,13.12
2018-09-15T03:00:12.789Z,13.11
2018-09-15T03:01:12.772Z,13.10
2018-09-15T03:02:12.753Z,13.17
2018-09-15T03:03:12.738Z,13.12
2018-09-15T03:04:12.715Z,13.12
2018-09-15T03:05:12.696Z,13.10
2018-09-15T03:06:12.675Z,13.08
2018-09-15T03:07:12.667Z,13.12
2018-09-15T03:08:12.644Z,13.12
2018-09-15T03:09:12.634Z,13.15
2018-09-15T03:10:12.604Z,13.14
2018-09-15T03:11:12.587Z,13.11
2018-09-15T03:12:12.573Z,13.07
2018-09-15T03:13:12.553Z,13.00
2018-09-15T03:14:12.533Z,13.00
2018-09-15T03:15:12.510Z,12.97
2018-09-15T03:16:12.502Z,12.90
2018-09-15T03:17:12.474Z,12.78
2018-09-15T03:18:12.455Z,12.85
2018-09-15T03:19:12.436Z,12.75
2018-09-15T03:20:12.418Z,12.70
2018-09-15T03:21:12.400Z,12.72
2018-09-15T03:22:12.381Z,12.72
2018-09-15T03:23:12.362Z,12.78
2018-09-15T03:24:12.343Z,12.75
2018-09-15T03:25:12.326Z,12.85
2018-09-15T03:26:12.304Z,12.82
2018-09-15T03:27:12.287Z,12.83
2018-09-15T03:28:12.268Z,12.86
2018-09-15T03:29:12.249Z,12.95
2018-09-15T03:30:12.230Z,12.78
2018-09-15T03:31:12.220Z,12.77
2018-09-15T03:32:12.195Z,12.70
2018-09-15T03:33:12.175Z,12.82
2018-09-15T03:34:12.155Z,12.75
2018-09-15T03:35:12.137Z,12.72
2018-09-15T03:36:12.120Z,12.62
2018-09-15T03:37:12.100Z,12.60
2018-09-15T03:38:12.080Z,12.53
2018-09-15T03:39:12.061Z,12.53
2018-09-15T03:40:12.042Z,12.50
2018-09-15T03:41:12.024Z,12.52
2018-09-15T03:42:12.005Z,12.56
2018-09-15T03:43:11.985Z,12.65
2018-09-15T03:44:11.967Z,12.57
2018-09-15T03:45:11.953Z,12.60
2018-09-15T03:46:11.928Z,12.53
2018-09-15T03:47:11.918Z,12.50
2018-09-15T03:48:11.893Z,12.49
2018-09-15T03:49:11.878Z,12.42
2018-09-15T03:50:11.855Z,12.37
2018-09-15T03:51:11.834Z,12.24
2018-09-15T03:52:11.817Z,12.34
2018-09-15T03:53:11.799Z,12.23
2018-09-15T03:54:11.779Z,12.20
2018-09-15T03:55:11.761Z,12.16
2018-09-15T03:56:11.744Z,12.07
2018-09-15T03:57:11.721Z,12.02
2018-09-15T03:58:11.702Z,12.02
2018-09-15T03:59:11.688Z,11.99
2018-09-15T04:00:11.672Z,12.07
2018-09-15T04:01:11.644Z,12.05
2018-09-15T04:02:11.626Z,11.96
2018-09-15T04:03:11.617Z,11.94
2018-09-15T04:04:11.588Z,11.90
2018-09-15T04:05:11.571Z,12.05
2018-09-15T04:06:11.561Z,11.96
2018-09-15T04:07:11.532Z,11.96
2018-09-15T04:08:11.512Z,11.90
2018-09-15T04:09:11.494Z,11.94
2018-09-15T04:10:11.470Z,11.90
2018-09-15T04:11:11.453Z,11.94
2018-09-15T04:12:11.433Z,11.94
2018-09-15T04:13:11.417Z,11.91
2018-09-15T04:14:11.445Z,11.91
2018-09-15T04:15:11.376Z,11.95
2018-09-15T04:16:11.356Z,11.94
2018-09-15T04:17:11.339Z,11.94
2018-09-15T04:18:11.319Z,12.01
2018-09-15T04:19:11.299Z,11.94
2018-09-15T04:20:11.280Z,11.88
2018-09-15T04:21:11.261Z,11.78
2018-09-15T04:22:11.240Z,11.91
2018-09-15T04:23:11.222Z,11.83
2018-09-15T04:24:11.203Z,11.82
2018-09-15T04:25:11.182Z,11.82
2018-09-15T04:26:11.163Z,11.80
2018-09-15T04:27:11.144Z,11.79
2018-09-15T04:28:11.125Z,11.78
2018-09-15T04:29:11.105Z,11.70
2018-09-15T04:30:11.084Z,11.83
2018-09-15T04:31:11.066Z,11.61
2018-09-15T04:32:11.047Z,11.67
2018-09-15T04:33:11.026Z,11.75
2018-09-15T04:34:11.008Z,11.67
2018-09-15T04:35:10.992Z,11.67
2018-09-15T04:36:10.968Z,11.69
2018-09-15T04:37:10.957Z,11.70
2018-09-15T04:38:53.455Z,11.75
2018-09-15T04:39:53.439Z,11.69
2018-09-15T04:40:53.417Z,11.69
2018-09-15T04:41:53.442Z,11.69
2018-09-15T04:42:53.380Z,11.67
2018-09-15T04:43:53.358Z,11.73
2018-09-15T04:44:53.339Z,11.75
2018-09-15T04:45:53.320Z,11.75
2018-09-15T04:48:05.873Z,11.91
2018-09-15T04:49:05.852Z,11.90
2018-09-15T04:50:05.830Z,11.98
2018-09-15T04:51:05.812Z,12.07
2018-09-15T04:52:05.791Z,12.07
2018-09-15T04:53:05.772Z,12.07
2018-09-15T04:54:05.752Z,12.16
2018-09-15T04:55:05.733Z,12.20
2018-09-15T04:56:05.714Z,12.27
2018-09-15T04:57:05.694Z,12.39
2018-09-15T04:58:05.677Z,12.37
2018-09-15T04:59:05.654Z,12.45
2018-09-15T05:00:05.637Z,12.46
2018-09-15T05:01:05.618Z,12.50
2018-09-15T05:02:05.598Z,12.67
2018-09-15T05:03:05.578Z,12.62
2018-09-15T05:04:05.558Z,12.72
2018-09-15T05:05:05.539Z,12.68
2018-09-15T05:06:05.520Z,12.71
2018-09-15T05:07:05.499Z,12.77
2018-09-15T05:08:05.485Z,12.75
2018-09-15T05:09:05.467Z,12.70
2018-09-15T05:10:05.443Z,12.75
2018-09-15T05:11:05.421Z,12.82
2018-09-15T05:12:05.408Z,12.82
2018-09-15T05:13:05.384Z,12.85
2018-09-15T05:14:05.367Z,12.79
2018-09-15T05:15:05.344Z,12.83
2018-09-15T05:16:05.327Z,12.89
2018-09-15T05:17:05.312Z,12.96
2018-09-15T05:18:05.290Z,12.93
2018-09-15T05:19:05.267Z,13.03
2018-09-15T05:20:05.253Z,13.07
2018-09-15T05:21:05.231Z,13.17
2018-09-15T05:22:05.212Z,13.11
2018-09-15T05:23:05.193Z,13.14
2018-09-15T05:24:05.174Z,13.07
2018-09-15T05:25:05.153Z,13.17
2018-09-15T05:26:05.136Z,13.22
2018-09-15T05:27:05.117Z,13.15
2018-09-15T05:28:05.097Z,13.17
2018-09-15T05:29:05.078Z,13.20
2018-09-15T05:30:05.057Z,13.26
2018-09-15T05:31:08.069Z,13.14
2018-09-15T05:32:05.021Z,13.26
2018-09-15T05:33:05.001Z,13.30
2018-09-15T05:34:04.990Z,13.23
2018-09-15T05:35:04.963Z,13.33
2018-09-15T05:36:04.945Z,13.42
2018-09-15T05:37:04.925Z,13.44
2018-09-15T05:38:04.913Z,13.39
2018-09-15T05:39:04.888Z,13.38
2018-09-15T05:40:04.868Z,13.55
2018-09-15T05:41:04.850Z,13.66
2018-09-15T05:42:04.833Z,13.63
2018-09-15T05:43:04.812Z,13.60
2018-09-15T05:44:04.793Z,13.59
2018-09-15T05:45:04.775Z,13.63
2018-09-15T05:46:04.759Z,13.62
2018-09-15T05:47:04.737Z,13.55
2018-09-15T05:48:04.722Z,13.63
2018-09-15T05:49:04.703Z,13.59
2018-09-15T05:50:04.681Z,13.60
2018-09-15T05:51:04.663Z,13.62
2018-09-15T05:52:04.650Z,13.70
2018-09-15T05:53:04.625Z,13.66
2018-09-15T05:54:04.607Z,13.73
2018-09-15T05:55:04.598Z,13.77
2018-09-15T05:56:04.623Z,13.82
2018-09-15T05:57:04.554Z,13.82
2018-09-15T05:58:04.539Z,13.85
2018-09-15T05:59:04.515Z,13.87
2018-09-15T06:00:04.498Z,13.82
2018-09-15T06:01:04.475Z,14.00
2018-09-15T06:02:04.461Z,13.99
2018-09-15T06:03:04.443Z,14.03
2018-09-15T06:04:04.422Z,14.07
2018-09-15T06:05:04.401Z,14.12
2018-09-15T06:06:04.382Z,14.17
2018-09-15T06:07:04.365Z,14.18
2018-09-15T06:08:04.349Z,14.33
2018-09-15T06:09:04.336Z,14.25
2018-09-15T06:10:04.309Z,14.42
2018-09-15T06:11:04.291Z,14.43
2018-09-15T06:12:04.274Z,14.39
2018-09-15T06:13:04.255Z,14.45
2018-09-15T06:14:04.236Z,14.47
2018-09-15T06:15:04.218Z,14.51
2018-09-15T06:16:04.200Z,14.62
2018-09-15T06:17:04.183Z,14.62
2018-09-15T06:18:04.162Z,14.70
2018-09-15T06:19:04.143Z,14.77
2018-09-15T06:20:04.127Z,14.81
2018-09-15T06:21:04.110Z,14.89
2018-09-15T06:22:04.093Z,14.94
2018-09-15T06:23:04.072Z,15.07
2018-09-15T06:24:04.054Z,15.09
2018-09-15T06:25:04.037Z,15.28
2018-09-15T06:26:04.023Z,15.29
2018-09-15T06:27:04.000Z,15.36
2018-09-15T06:28:03.982Z,15.50
2018-09-15T06:29:03.967Z,15.43
2018-09-15T06:30:03.945Z,15.49
2018-09-15T06:31:03.936Z,15.56
2018-09-15T06:32:03.911Z,15.67
2018-09-15T06:33:03.892Z,15.74
2018-09-15T06:34:03.874Z,15.89
2018-09-15T06:35:03.860Z,15.93
2018-09-15T06:36:03.839Z,16.05
2018-09-15T06:37:03.822Z,16.04
2018-09-15T06:38:03.804Z,16.07
2018-09-15T06:39:03.788Z,16.12
2018-09-15T06:40:03.768Z,16.25
2018-09-15T06:41:03.757Z,16.31
2018-09-15T06:42:03.761Z,16.39
2018-09-15T06:43:03.714Z,16.45
2018-09-15T06:44:03.699Z,16.45
2018-09-15T06:45:03.689Z,16.49
2018-09-15T06:46:03.665Z,16.52
2018-09-15T06:47:03.648Z,16.53
2018-09-15T06:48:03.629Z,16.71
2018-09-15T06:49:03.619Z,16.79
2018-09-15T06:50:03.594Z,16.81
2018-09-15T06:51:03.580Z,16.86
2018-09-15T06:52:03.560Z,16.82
2018-09-15T06:53:03.546Z,16.96
2018-09-15T06:54:03.526Z,17.11
2018-09-15T06:55:03.510Z,17.12
2018-09-15T06:56:03.492Z,17.16
2018-09-15T06:57:03.489Z,17.16
2018-09-15T06:58:03.459Z,17.31
2018-09-15T06:59:03.446Z,17.26
2018-09-15T07:00:03.426Z,17.33
2018-09-15T07:01:03.408Z,17.44
2018-09-15T07:02:03.388Z,17.56
2018-09-15T07:03:03.373Z,17.68
2018-09-15T07:04:03.356Z,17.66
2018-09-15T07:05:03.338Z,17.84
2018-09-15T07:06:03.323Z,17.89
2018-09-15T07:07:03.370Z,17.99
2018-09-15T07:08:03.297Z,18.33
2018-09-15T07:09:03.274Z,18.48
2018-09-15T07:10:03.255Z,18.84
2018-09-15T07:11:03.238Z,18.95
2018-09-15T07:12:03.223Z,19.16
2018-09-15T07:13:03.262Z,19.37
2018-09-15T07:14:03.194Z,19.61
2018-09-15T07:15:03.175Z,19.86
2018-09-15T07:16:03.162Z,20.17
2018-09-15T07:17:03.145Z,20.31
2018-09-15T07:18:03.131Z,20.39
2018-09-15T07:19:03.114Z,20.55
2018-09-15T07:20:03.170Z,20.69
2018-09-15T07:21:03.092Z,20.82
2018-09-15T07:22:03.072Z,20.98
2018-09-15T07:23:03.053Z,21.13
2018-09-15T07:24:03.040Z,21.34
2018-09-15T07:25:03.024Z,21.43
2018-09-15T07:26:03.089Z,21.68
2018-09-15T07:27:03.002Z,21.86
2018-09-15T07:28:02.986Z,22.14
2018-09-15T07:29:02.970Z,22.22
2018-09-15T07:30:02.957Z,22.52
2018-09-15T07:31:02.942Z,22.79
2018-09-15T07:32:02.929Z,23.05
2018-09-15T07:33:02.915Z,23.23
2018-09-15T07:34:02.901Z,23.48
2018-09-15T07:35:02.888Z,23.65
2018-09-15T07:36:02.887Z,23.87
2018-09-15T07:37:02.870Z,24.06
2018-09-15T07:38:02.849Z,24.28
2018-09-15T07:39:02.836Z,24.46
2018-09-15T07:40:02.829Z,24.68
2018-09-15T07:41:02.823Z,24.84
2018-09-15T07:42:02.799Z,24.87
2018-09-15T07:43:02.792Z,24.84
2018-09-15T07:44:02.781Z,24.96
2018-09-15T07:45:02.767Z,25.06
2018-09-15T07:46:02.755Z,25.08
2018-09-15T07:47:02.745Z,24.87
2018-09-15T07:48:02.733Z,24.91
2018-09-15T07:49:02.724Z,25.20
2018-09-15T07:50:02.710Z,25.17
2018-09-15T07:51:02.703Z,25.38
2018-09-15T07:52:02.696Z,25.39
2018-09-15T07:53:02.727Z,25.54
2018-09-15T07:54:02.666Z,25.40
2018-09-15T07:55:02.659Z,25.40
2018-09-15T07:56:02.644Z,25.43
2018-09-15T07:57:02.637Z,25.45
2018-09-15T07:58:02.715Z,25.51
2018-09-15T07:59:02.613Z,25.73
2018-09-15T08:00:02.614Z,25.82
2018-09-15T08:01:02.590Z,25.92
2018-09-15T08:02:02.666Z,26.18
2018-09-15T08:03:02.572Z,26.30
2018-09-15T08:04:02.571Z,26.23
2018-09-15T08:05:02.549Z,26.37
2018-09-15T08:06:02.536Z,26.36
2018-09-15T08:07:02.533Z,26.37
2018-09-15T08:08:02.523Z,26.48
2018-09-15T08:09:02.518Z,26.51
2018-09-15T08:10:02.497Z,26.60
2018-09-15T08:11:02.516Z,26.67
2018-09-15T08:12:02.476Z,26.50
2018-09-15T08:13:02.463Z,26.54
2018-09-15T08:14:02.456Z,26.43
2018-09-15T08:15:02.445Z,26.43
2018-09-15T08:16:02.442Z,26.50
2018-09-15T08:17:02.426Z,26.76
2018-09-15T08:18:02.421Z,26.88
2018-09-15T08:19:02.405Z,27.00
2018-09-15T08:20:02.398Z,27.03
2018-09-15T08:21:02.386Z,26.99
2018-09-15T08:22:02.375Z,27.06
2018-09-15T08:23:02.375Z,27.04
2018-09-15T08:24:02.362Z,27.02
2018-09-15T08:25:02.355Z,27.09
2018-09-15T08:26:02.382Z,27.14
2018-09-15T08:27:02.333Z,27.28
2018-09-15T08:28:02.326Z,27.17
2018-09-15T08:29:02.317Z,27.18
2018-09-15T08:30:02.311Z,27.22
2018-09-15T08:31:02.301Z,27.31
2018-09-15T08:32:02.347Z,27.40
2018-09-15T08:33:02.283Z,27.44
2018-09-15T08:34:02.279Z,27.55
2018-09-15T08:35:02.272Z,27.67
2018-09-15T08:36:02.264Z,27.51
2018-09-15T08:37:02.257Z,27.50
2018-09-15T08:38:02.245Z,27.97
2018-09-15T08:39:02.258Z,28.43
2018-09-15T08:40:02.234Z,28.71
2018-09-15T08:41:02.223Z,28.86
2018-09-15T08:42:02.222Z,28.67
2018-09-15T08:43:02.209Z,28.51
2018-09-15T08:44:02.200Z,28.15
2018-09-15T08:45:02.203Z,27.78
2018-09-15T08:46:02.195Z,27.44
2018-09-15T08:47:02.181Z,27.10
2018-09-15T08:48:02.185Z,27.06
2018-09-15T08:49:02.167Z,26.94
2018-09-15T08:50:02.163Z,26.89
2018-09-15T08:51:02.152Z,26.80
2018-09-15T08:52:02.139Z,26.67
2018-09-15T08:53:02.135Z,26.52
2018-09-15T08:54:02.131Z,26.09
2018-09-15T08:55:02.115Z,25.99
2018-09-15T08:56:02.116Z,25.98
2018-09-15T08:57:02.107Z,25.90
2018-09-15T08:58:02.088Z,25.88
2018-09-15T08:59:02.087Z,25.67
2018-09-15T09:00:02.073Z,25.55
2018-09-15T09:01:02.069Z,25.52
2018-09-15T09:02:02.059Z,25.38
2018-09-15T09:03:02.051Z,25.23
2018-09-15T09:04:02.041Z,25.15
2018-09-15T09:05:02.035Z,25.13
2018-09-15T09:06:02.021Z,25.20
2018-09-15T09:07:02.016Z,25.00
2018-09-15T09:08:02.005Z,24.96
2018-09-15T09:09:01.995Z,24.91
2018-09-15T09:10:01.986Z,24.98
2018-09-15T09:11:01.987Z,25.08
2018-09-15T09:12:01.969Z,25.17
2018-09-15T09:13:01.961Z,25.05
2018-09-15T09:14:01.948Z,25.00
2018-09-15T09:15:01.950Z,24.80
2018-09-15T09:16:01.928Z,24.55
2018-09-15T09:17:01.921Z,24.24
2018-09-15T09:18:01.920Z,24.06
2018-09-15T09:19:01.903Z,23.80
2018-09-15T09:20:01.967Z,23.54
2018-09-15T09:21:01.879Z,23.63
2018-09-15T09:22:01.870Z,23.48
2018-09-15T09:23:01.861Z,23.50
2018-09-15T09:24:01.849Z,23.39
2018-09-15T09:25:01.844Z,23.51
2018-09-15T09:26:01.887Z,23.54
2018-09-15T09:27:01.851Z,23.53
2018-09-15T09:28:01.809Z,23.40
2018-09-15T09:29:01.802Z,23.23
2018-09-15T09:30:01.809Z,23.16
2018-09-15T09:31:01.781Z,23.17
2018-09-15T09:32:01.781Z,22.95
2018-09-15T09:33:01.792Z,23.07
2018-09-15T09:34:01.751Z,23.17
2018-09-15T09:35:01.741Z,23.25
2018-09-15T09:36:01.729Z,23.27
2018-09-15T09:37:01.719Z,23.28
2018-09-15T09:38:01.715Z,23.42
2018-09-15T09:39:01.692Z,23.51
2018-09-15T09:40:01.686Z,23.55
2018-09-15T09:41:01.669Z,23.57
2018-09-15T09:42:01.663Z,23.66
2018-09-15T09:43:01.653Z,23.78
2018-09-15T09:44:01.643Z,23.90
2018-09-15T09:45:01.634Z,24.00
2018-09-15T09:46:01.616Z,24.06
2018-09-15T09:47:01.608Z,24.13
2018-09-15T09:48:01.625Z,24.28
2018-09-15T09:49:01.586Z,24.32
2018-09-15T09:50:01.574Z,24.31
2018-09-15T09:51:01.563Z,24.40
2018-09-15T09:52:01.551Z,24.42
2018-09-15T09:53:01.542Z,24.49
2018-09-15T09:54:01.533Z,24.43
2018-09-15T09:55:01.523Z,24.24
2018-09-15T09:56:01.509Z,24.27
2018-09-15T09:57:01.499Z,24.47
2018-09-15T09:58:01.487Z,24.31
2018-09-15T09:59:01.484Z,24.25
2018-09-15T10:00:01.466Z,24.08
2018-09-15T10:01:01.457Z,24.05
2018-09-15T10:02:01.448Z,24.03
2018-09-15T10:03:01.441Z,24.13
2018-09-15T10:04:01.428Z,24.24
2018-09-15T10:05:01.415Z,24.15
2018-09-15T10:06:01.406Z,24.05
2018-09-15T10:07:01.456Z,24.10
2018-09-15T10:08:01.391Z,24.08
2018-09-15T10:09:01.374Z,23.97
2018-09-15T10:10:01.363Z,23.83
2018-09-15T10:11:01.358Z,23.75
2018-09-15T10:12:01.352Z,23.63
2018-09-15T10:13:01.335Z,23.51
2018-09-15T10:14:01.343Z,23.46
2018-09-15T10:15:01.330Z,23.36
2018-09-15T10:16:01.388Z,23.39
2018-09-15T10:17:01.292Z,23.65
2018-09-15T10:18:01.283Z,23.93
2018-09-15T10:19:01.277Z,23.87
2018-09-15T10:20:01.261Z,23.69
2018-09-15T10:21:01.254Z,23.78
2018-09-15T10:22:01.246Z,23.60
2018-09-15T10:23:01.231Z,23.43
2018-09-15T10:24:01.225Z,23.66
2018-09-15T10:25:01.219Z,23.95
2018-09-15T10:26:01.204Z,24.25
2018-09-15T10:27:01.193Z,24.65
2018-09-15T10:28:01.185Z,24.88
2018-09-15T10:29:01.171Z,25.10
2018-09-15T10:30:01.164Z,25.13
2018-09-15T10:31:01.155Z,25.42
2018-09-15T10:32:01.179Z,25.76
2018-09-15T10:33:01.138Z,26.13
2018-09-15T10:34:01.125Z,26.21
2018-09-15T10:35:01.123Z,26.50
2018-09-15T10:36:01.108Z,26.57
2018-09-15T10:37:01.107Z,26.75
2018-09-15T10:38:01.093Z,26.82
2018-09-15T10:39:01.086Z,26.97
2018-09-15T10:40:01.079Z,26.54
2018-09-15T10:41:01.066Z,26.28
2018-09-15T10:42:01.059Z,25.95
2018-09-15T10:43:01.052Z,25.75
2018-09-15T10:44:01.052Z,25.75
2018-09-15T10:45:01.038Z,25.54
2018-09-15T10:46:01.143Z,25.50
2018-09-15T10:47:01.022Z,25.17
2018-09-15T10:48:03.216Z,25.72
2018-09-15T10:49:01.006Z,26.18
2018-09-15T10:50:00.997Z,25.99
2018-09-15T10:51:00.992Z,25.88
2018-09-15T10:52:00.981Z,26.25
2018-09-15T10:53:00.977Z,26.87
2018-09-15T10:54:00.965Z,26.62
2018-09-15T10:55:00.963Z,26.37
2018-09-15T10:56:00.949Z,26.20
2018-09-15T10:57:00.943Z,25.98
2018-09-15T10:58:00.936Z,25.72
2018-09-15T10:59:00.932Z,25.52
2018-09-15T11:00:00.921Z,25.17
2018-09-15T11:01:00.918Z,25.00
2018-09-15T11:02:00.909Z,24.95
2018-09-15T11:03:00.905Z,25.18
2018-09-15T11:04:00.894Z,25.82
2018-09-15T11:05:00.895Z,26.32
2018-09-15T11:06:00.958Z,26.88
2018-09-15T11:07:00.872Z,27.17
2018-09-15T11:08:00.858Z,27.29
2018-09-15T11:09:00.853Z,27.66
2018-09-15T11:10:00.845Z,28.30
2018-09-15T11:11:00.837Z,28.46
2018-09-15T11:12:00.834Z,28.93
2018-09-15T11:13:00.822Z,29.33
2018-09-15T11:14:00.818Z,29.53
2018-09-15T11:15:00.807Z,29.68
2018-09-15T11:16:00.809Z,29.85
2018-09-15T11:17:00.799Z,29.97
2018-09-15T11:18:00.788Z,30.27
2018-09-15T11:19:00.786Z,30.54
2018-09-15T11:20:00.777Z,30.86
2018-09-15T11:21:00.773Z,30.92
2018-09-15T11:22:00.764Z,31.06
2018-09-15T11:23:00.765Z,30.99
2018-09-15T11:24:00.761Z,30.38
2018-09-15T11:25:00.752Z,30.54
2018-09-15T11:26:00.741Z,30.24
2018-09-15T11:27:00.738Z,30.29
2018-09-15T11:28:00.732Z,30.62
2018-09-15T11:29:00.766Z,30.60
2018-09-15T11:30:00.720Z,30.79
2018-09-15T11:31:00.715Z,31.07
2018-09-15T11:32:00.715Z,31.25
2018-09-15T11:33:00.705Z,31.53
2018-09-15T11:34:00.721Z,31.78
2018-09-15T11:35:00.696Z,32.08
2018-09-15T11:36:00.691Z,32.08
2018-09-15T11:37:00.685Z,32.43
2018-09-15T11:38:00.685Z,32.69
2018-09-15T11:39:00.675Z,32.77
2018-09-15T11:40:00.673Z,32.97
2018-09-15T11:41:00.679Z,33.32
2018-09-15T11:42:00.664Z,33.22
2018-09-15T11:43:00.663Z,33.29
2018-09-15T11:44:00.653Z,33.38
2018-09-15T11:45:00.648Z,33.47
2018-09-15T11:46:00.644Z,33.47
2018-09-15T11:47:00.637Z,33.65
2018-09-15T11:48:00.682Z,33.59
2018-09-15T11:49:00.634Z,33.81
2018-09-15T11:50:00.630Z,33.87
2018-09-15T11:51:00.624Z,34.08
2018-09-15T11:52:00.620Z,33.68
2018-09-15T11:53:00.619Z,33.01
2018-09-15T11:54:00.778Z,32.29
2018-09-15T11:55:00.610Z,31.68
2018-09-15T11:56:00.609Z,31.02
2018-09-15T11:57:00.604Z,30.43
2018-09-15T11:58:00.600Z,29.97
2018-09-15T11:59:00.593Z,29.60
2018-09-15T12:00:00.653Z,29.16
2018-09-15T12:01:00.588Z,28.77
2018-09-15T12:02:00.641Z,29.06
2018-09-15T12:03:00.575Z,29.26
2018-09-15T12:04:00.585Z,28.98
2018-09-15T12:05:00.576Z,28.73
2018-09-15T12:06:00.570Z,28.39
2018-09-15T12:07:00.557Z,28.22
2018-09-15T12:08:00.555Z,28.04
2018-09-15T12:09:00.549Z,27.75
2018-09-15T12:10:00.542Z,27.51
2018-09-15T12:11:00.540Z,27.41
2018-09-15T12:12:00.533Z,27.25
2018-09-15T12:13:00.536Z,26.95
2018-09-15T12:14:00.525Z,26.87
2018-09-15T12:15:00.516Z,26.72
2018-09-15T12:16:00.512Z,26.33
2018-09-15T12:17:00.509Z,26.21
2018-09-15T12:18:00.498Z,25.99
2018-09-15T12:19:00.495Z,25.90
2018-09-15T12:20:00.489Z,25.85
2018-09-15T12:21:00.484Z,25.70
2018-09-15T12:22:00.477Z,25.51
2018-09-15T12:23:00.467Z,25.35
2018-09-15T12:24:00.464Z,25.30
2018-09-15T12:25:00.454Z,25.25
2018-09-15T12:26:00.449Z,25.10
2018-09-15T12:27:00.440Z,25.00
2018-09-15T12:28:00.493Z,24.93
2018-09-15T12:29:00.430Z,24.80
2018-09-15T12:30:00.427Z,24.76
2018-09-15T12:31:00.414Z,24.78
2018-09-15T12:32:00.405Z,24.77
2018-09-15T12:33:00.398Z,24.65
2018-09-15T12:34:00.389Z,24.71
2018-09-15T12:35:00.381Z,24.67
2018-09-15T12:36:00.374Z,24.67
2018-09-15T12:37:00.365Z,24.64
2018-09-15T12:38:00.368Z,24.57
2018-09-15T12:39:00.355Z,24.58
2018-09-15T12:40:00.340Z,24.58
2018-09-15T12:41:00.333Z,24.49
2018-09-15T12:42:00.328Z,24.35
2018-09-15T12:43:00.316Z,24.27
2018-09-15T12:44:00.310Z,24.08
2018-09-15T12:45:00.427Z,24.06
2018-09-15T12:46:00.289Z,23.98
2018-09-15T12:47:00.281Z,24.06
2018-09-15T12:48:00.273Z,24.02
2018-09-15T12:49:00.268Z,24.13
2018-09-15T12:50:00.254Z,24.03
2018-09-15T12:51:00.245Z,24.09
2018-09-15T12:52:00.364Z,24.08
2018-09-15T12:53:00.230Z,24.06
2018-09-15T12:54:00.217Z,24.09